Time;durP1;ratioP1;P1;durP2;ratioP2;P2;SDS_P1;SDS_P2;PMS_P1;PMS_P2;Temp;Humidity;BMP_temperature;BMP_pressure;BME280_temperature;BME280_humidity;BME280_pressure;Samples;Min_cycle;Max_cycle;Signal;HPM_P1;HPM_P2
2023/02/07 00:01:50;;;;;;;35.20;22.00;;;;;;;-10.66;80.54;99051.23;110151;1245;68454;-71
2023/02/07 00:04:19;;;;;;;34.20;20.10;;;;;;;-10.68;80.71;99051.84;110134;1245;69244;-71
2023/02/07 00:06:49;;;;;;;23.30;15.50;;;;;;;-10.67;80.46;99052.73;110171;1241;58949;-72
2023/02/07 00:09:18;;;;;;;27.70;17.10;;;;;;;-10.64;80.54;99054.88;110114;1243;58877;-72
2023/02/07 00:11:48;;;;;;;24.00;14.90;;;;;;;-10.60;79.72;99051.48;110146;1241;69662;-72
2023/02/07 00:14:17;;;;;;;27.00;15.90;;;;;;;-10.58;79.63;99053.77;110163;1244;69833;-71
2023/02/07 00:16:47;;;;;;;27.00;15.50;;;;;;;-10.56;79.26;99061.07;110130;1244;68333;-72
2023/02/07 00:19:18;;;;;;;25.90;15.00;;;;;;;-10.53;79.67;99068.73;110133;1243;58911;-72
2023/02/07 00:21:48;;;;;;;32.40;19.80;;;;;;;-10.51;79.72;99065.94;110129;1241;58928;-71
2023/02/07 00:24:18;;;;;;;26.70;16.50;;;;;;;-10.48;79.58;99066.39;110193;1244;70986;-72
2023/02/07 00:26:48;;;;;;;28.30;15.40;;;;;;;-10.47;79.08;99070.16;110172;1244;69814;-71
2023/02/07 00:29:18;;;;;;;24.10;14.80;;;;;;;-10.46;79.49;99070.18;110072;1244;69851;-71
2023/02/07 00:31:49;;;;;;;38.60;22.40;;;;;;;-10.47;78.85;99063.91;110124;1241;58931;-72
2023/02/07 00:34:21;;;;;;;34.40;23.40;;;;;;;-10.51;80.07;99061.91;110111;1241;58942;-73
2023/02/07 00:36:50;;;;;;;;;;;;;;;-10.54;78.90;99061.45;110108;1245;70597;-71
2023/02/07 00:39:21;;;;;;;37.90;23.40;;;;;;;-10.64;78.58;99057.05;110125;1244;67346;-71
2023/02/07 00:41:52;;;;;;;44.40;27.20;;;;;;;-10.75;78.79;99053.11;110142;1241;68465;-71
2023/02/07 00:44:22;;;;;;;45.20;25.30;;;;;;;-10.84;80.33;99055.95;110111;1244;58905;-71
2023/02/07 00:46:52;;;;;;;47.10;28.10;;;;;;;-10.91;80.27;99059.56;110194;1244;58891;-71
2023/02/07 00:49:22;;;;;;;46.40;29.70;;;;;;;-10.98;81.37;99057.44;110118;1243;70937;-71
2023/02/07 00:51:52;;;;;;;41.10;23.80;;;;;;;-11.03;82.18;99054.21;110116;1243;69801;-71
2023/02/07 00:54:22;;;;;;;31.50;20.80;;;;;;;-11.07;81.94;99060.33;110090;1244;69301;-72
2023/02/07 00:56:53;;;;;;;35.50;21.80;;;;;;;-11.11;81.61;99060.16;110052;1244;58933;-71
2023/02/07 00:59:23;;;;;;;;;;;;;;;-11.14;82.56;99059.33;110102;1241;58943;-71
2023/02/07 01:01:53;;;;;;;25.80;16.10;;;;;;;-11.18;82.19;99058.69;110125;1242;70603;-71
2023/02/07 01:04:23;;;;;;;30.80;17.90;;;;;;;-11.22;83.03;99060.21;110147;1251;69202;-71
2023/02/07 01:06:53;;;;;;;26.60;16.00;;;;;;;-11.25;83.08;99058.75;110154;1244;69257;-71
2023/02/07 01:09:23;;;;;;;23.60;14.50;;;;;;;-11.29;82.39;99061.46;110120;1250;58949;-71
2023/02/07 01:11:53;;;;;;;23.00;16.60;;;;;;;-11.32;83.02;99060.52;110158;1244;58889;-71
2023/02/07 01:14:26;;;;;;;27.50;15.60;;;;;;;-11.33;83.32;99061.83;110128;1245;70593;-71
2023/02/07 01:16:56;;;;;;;39.60;24.10;;;;;;;-11.36;83.25;99069.95;110166;1241;68494;-71
2023/02/07 01:19:26;;;;;;;36.30;21.70;;;;;;;-11.41;84.48;99071.95;110085;1241;68625;-70
2023/02/07 01:21:58;;;;;;;31.70;18.40;;;;;;;-11.43;84.28;99074.52;110096;1244;59006;-71
2023/02/07 01:24:28;;;;;;;40.40;23.60;;;;;;;-11.45;84.43;99075.83;110124;1243;59033;-71
2023/02/07 01:26:58;;;;;;;37.70;21.40;;;;;;;-11.44;85.12;99068.95;110131;1246;70648;-71
2023/02/07 01:29:29;;;;;;;26.10;16.50;;;;;;;-11.44;84.16;99063.73;110136;1244;69070;-71
2023/02/07 01:32:01;;;;;;;29.80;17.90;;;;;;;-11.46;82.70;99066.51;110113;1243;68149;-71
2023/02/07 01:34:31;;;;;;;24.60;16.10;;;;;;;-11.48;81.73;99069.63;110168;1244;58934;-71
2023/02/07 01:37:01;;;;;;;21.50;13.90;;;;;;;-11.49;81.35;99069.58;110193;1241;58957;-71
2023/02/07 01:39:31;;;;;;;;;;;;;;;-11.51;81.29;99071.16;110142;1243;70440;-71
2023/02/07 01:42:04;;;;;;;24.30;14.30;;;;;;;-11.52;81.65;99077.03;110132;1241;69324;-71
2023/02/07 01:44:36;;;;;;;28.80;17.80;;;;;;;-11.53;82.21;99076.64;110127;1244;69118;-71
2023/02/07 01:47:14;;;;;;;23.80;14.90;;;;;;;-11.55;82.38;99073.23;110147;1246;58868;-71
2023/02/07 01:49:45;;;;;;;21.20;12.00;;;;;;;-11.56;81.55;99071.83;110121;1245;58878;-71
2023/02/07 01:52:22;;;;;;;18.30;12.10;;;;;;;-11.58;80.90;99069.89;110168;1241;70523;-71
2023/02/07 01:54:56;;;;;;;20.00;11.80;;;;;;;-11.61;80.72;99069.63;110118;1244;69038;-71
2023/02/07 01:57:27;;;;;;;19.40;13.40;;;;;;;-11.64;80.54;99071.33;110114;1244;69267;-71
2023/02/07 01:59:59;;;;;;;21.90;13.10;;;;;;;-11.69;80.53;99067.09;110011;1244;58911;-71
2023/02/07 02:02:33;;;;;;;23.30;11.80;;;;;;;-11.72;80.32;99062.60;110100;1243;58884;-71
2023/02/07 02:05:03;;;;;;;16.50;11.00;;;;;;;-11.76;80.34;99058.73;110131;1244;69729;-71
2023/02/07 02:07:35;;;;;;;17.70;12.00;;;;;;;-11.76;81.63;99058.73;110123;1241;69351;-71
2023/02/07 02:10:13;;;;;;;28.10;15.40;;;;;;;-11.76;83.80;99056.53;110108;1244;69384;-71
2023/02/07 02:13:25;;;;;;;19.10;11.60;;;;;;;-11.77;83.40;99054.30;110101;1243;58937;-71
2023/02/07 02:16:13;;;;;;;30.50;17.60;;;;;;;-11.81;81.55;99047.43;110123;1241;58874;-71
2023/02/07 02:19:14;;;;;;;26.20;15.60;;;;;;;-11.84;80.28;99044.47;110211;1244;69727;-71
2023/02/07 02:22:28;;;;;;;21.90;14.10;;;;;;;-11.86;80.09;99048.40;110080;1244;67671;-71
2023/02/07 02:25:37;;;;;;;20.60;11.90;;;;;;;-11.90;79.75;99043.73;109622;1248;69184;-71
2023/02/07 02:28:18;;;;;;;20.70;14.80;;;;;;;-11.90;79.62;99044.21;109661;1247;59007;-71
2023/02/07 02:31:14;;;;;;;21.30;13.50;;;;;;;-11.90;79.80;99044.39;109638;1247;58991;-72
2023/02/07 02:34:03;;;;;;;25.30;15.70;;;;;;;-11.90;79.43;99044.89;110017;1241;70598;-71
2023/02/07 02:36:45;;;;;;;24.30;13.50;;;;;;;-11.91;80.51;99050.42;110071;1245;68054;-72
2023/02/07 02:39:31;;;;;;;25.10;17.20;;;;;;;-11.90;83.98;99051.94;110123;1244;69478;-71
2023/02/07 02:42:27;;;;;;;36.40;21.10;;;;;;;-11.91;85.17;99057.80;110062;1244;58835;-71
2023/02/07 02:45:10;;;;;;;31.70;18.50;;;;;;;-11.90;86.34;99059.86;110155;1242;58878;-71
2023/02/07 02:47:45;;;;;;;29.60;18.70;;;;;;;-11.87;85.29;99055.95;110082;1244;70352;-72
2023/02/07 02:50:27;;;;;;;30.00;18.40;;;;;;;-11.85;81.96;99050.83;110011;1244;69312;-71
2023/02/07 02:52:59;;;;;;;30.80;19.30;;;;;;;-11.82;83.83;99054.30;110151;1244;68531;-72
2023/02/07 02:56:06;;;;;;;32.40;19.70;;;;;;;-11.75;84.38;99058.74;110127;1241;58867;-72
2023/02/07 02:59:00;;;;;;;28.80;16.90;;;;;;;-11.68;84.45;99060.07;110110;1244;58887;-70
2023/02/07 03:01:51;;;;;;;29.00;15.40;;;;;;;-11.66;83.78;99060.66;109980;1241;69815;-70
2023/02/07 03:04:45;;;;;;;33.70;20.80;;;;;;;-11.63;84.64;99060.09;110147;1242;68315;-70
2023/02/07 03:07:32;;;;;;;34.90;21.00;;;;;;;-11.64;84.80;99054.00;110037;1244;69126;-70
2023/02/07 03:10:26;;;;;;;25.00;17.10;;;;;;;-11.64;84.74;99049.31;110089;1241;59033;-71
2023/02/07 03:13:08;;;;;;;25.30;16.50;;;;;;;-11.63;85.35;99046.13;110159;1241;58953;-71
2023/02/07 03:16:02;;;;;;;22.00;14.10;;;;;;;-11.59;85.73;99045.30;110168;1244;70522;-71
2023/02/07 03:19:06;;;;;;;27.50;15.90;;;;;;;-11.52;85.75;99041.03;110021;1244;68586;-71
2023/02/07 03:21:44;;;;;;;28.20;16.90;;;;;;;-11.43;85.92;99045.26;109938;1245;69320;-71
2023/02/07 03:24:23;;;;;;;30.30;17.00;;;;;;;-11.39;85.36;99050.45;110153;1243;58978;-72
2023/02/07 03:26:58;;;;;;;28.70;17.40;;;;;;;-11.36;85.42;99048.55;110178;1241;58877;-71
2023/02/07 03:29:31;;;;;;;30.80;16.20;;;;;;;-11.32;85.70;99049.91;110127;1241;70474;-71
2023/02/07 03:32:04;;;;;;;28.40;17.20;;;;;;;-11.27;85.24;99051.61;110191;1244;69729;-72
2023/02/07 03:34:46;;;;;;;21.80;13.80;;;;;;;-11.24;84.28;99056.27;110137;1244;68159;-70
2023/02/07 03:37:30;;;;;;;33.60;18.90;;;;;;;-11.21;84.43;99054.71;110113;1244;58999;-71
2023/02/07 03:40:05;;;;;;;26.70;15.70;;;;;;;-11.17;84.26;99055.71;110160;1244;58898;-70
2023/02/07 03:42:54;;;;;;;40.50;22.80;;;;;;;-11.19;84.36;99053.63;110147;1241;70588;-70
2023/02/07 03:45:23;;;;;;;29.10;17.70;;;;;;;-11.21;84.99;99056.06;110081;1244;69204;-71
2023/02/07 03:47:52;;;;;;;32.70;18.60;;;;;;;-11.21;83.92;99059.07;110132;1241;68395;-71
2023/02/07 03:50:22;;;;;;;30.70;20.20;;;;;;;-11.21;84.39;99063.96;110118;1241;58960;-71
2023/02/07 03:52:51;;;;;;;29.50;19.60;;;;;;;-11.21;83.76;99063.46;110143;1243;58863;-71
2023/02/07 03:55:21;;;;;;;35.70;23.10;;;;;;;-11.22;85.06;99061.74;110128;1244;69880;-71
2023/02/07 03:57:51;;;;;;;;;;;;;;;-11.23;84.99;99056.12;110167;1244;69276;-71
2023/02/07 04:00:21;;;;;;;28.00;16.70;;;;;;;-11.26;84.81;99050.82;110130;1241;69170;-71
2023/02/07 04:02:51;;;;;;;29.70;20.90;;;;;;;-11.29;83.67;99052.39;110179;1244;59280;-71
2023/02/07 04:05:21;;;;;;;38.70;23.50;;;;;;;-11.32;82.01;99051.42;110195;1244;58869;-70
2023/02/07 04:07:51;;;;;;;33.80;21.20;;;;;;;-11.40;84.00;99052.13;110169;1241;70664;-71
2023/02/07 04:10:20;;;;;;;34.30;22.90;;;;;;;-11.43;85.11;99050.96;110181;1244;68591;-71
2023/02/07 04:12:50;;;;;;;33.50;19.30;;;;;;;-11.45;84.86;99047.21;110128;1244;69903;-71
2023/02/07 04:15:20;;;;;;;22.60;16.10;;;;;;;-11.45;84.63;99047.87;110152;1244;58892;-72
2023/02/07 04:17:50;;;;;;;38.10;22.10;;;;;;;-11.45;84.79;99043.66;110127;1242;58883;-73
2023/02/07 04:20:20;;;;;;;32.50;18.70;;;;;;;-11.45;85.58;99044.02;110146;1241;70597;-72
2023/02/07 04:22:50;;;;;;;35.60;22.10;;;;;;;-11.45;84.98;99045.70;110166;1241;69034;-71
2023/02/07 04:25:19;;;;;;;33.70;20.60;;;;;;;-11.47;85.46;99047.63;110091;1245;68370;-71
2023/02/07 04:27:52;;;;;;;36.80;21.80;;;;;;;-11.48;85.60;99054.14;110126;1242;58960;-71
2023/02/07 04:30:22;;;;;;;40.90;24.20;;;;;;;-11.47;85.70;99058.89;110142;1241;58847;-72
2023/02/07 04:32:51;;;;;;;;;;;;;;;-11.46;85.52;99055.91;110141;1244;70632;-71
2023/02/07 04:35:22;;;;;;;29.30;18.10;;;;;;;-11.45;85.87;99052.74;110138;1243;69831;-71
2023/02/07 04:37:51;;;;;;;30.30;18.30;;;;;;;-11.43;86.27;99054.84;109964;1244;69263;-71
2023/02/07 04:40:21;;;;;;;33.60;20.40;;;;;;;-11.41;84.91;99057.31;110012;1247;58945;-71
2023/02/07 04:42:51;;;;;;;33.60;18.90;;;;;;;-11.41;83.11;99059.98;110176;1243;58859;-71
2023/02/07 04:45:21;;;;;;;26.40;16.80;;;;;;;-11.41;85.07;99065.85;110159;1241;71173;-71
2023/02/07 04:47:52;;;;;;;31.50;20.00;;;;;;;-11.41;83.67;99065.89;110149;1244;69600;-71
2023/02/07 04:50:21;;;;;;;36.10;22.00;;;;;;;-11.42;83.36;99074.41;110112;1244;69454;-72
2023/02/07 04:52:51;;;;;;;34.10;21.10;;;;;;;-11.43;83.71;99085.15;110141;1244;58941;-71
2023/02/07 04:55:21;;;;;;;31.40;19.40;;;;;;;-11.43;83.96;99089.51;110174;1243;58849;-71
2023/02/07 04:57:50;;;;;;;30.90;16.80;;;;;;;-11.43;83.63;99097.27;110159;1241;71207;-71
2023/02/07 05:00:20;;;;;;;32.10;19.20;;;;;;;-11.43;82.17;99100.94;110166;1241;67390;-71
2023/02/07 05:02:49;;;;;;;38.40;21.60;;;;;;;-11.45;82.29;99097.69;110108;1244;69537;-72
2023/02/07 05:05:19;;;;;;;34.60;20.30;;;;;;;-11.47;81.57;99091.52;110169;1241;58965;-72
2023/02/07 05:07:50;;;;;;;52.00;28.20;;;;;;;-11.50;81.61;99093.77;110163;1243;58849;-73
2023/02/07 05:10:19;;;;;;;43.60;25.60;;;;;;;-11.51;82.84;99091.71;110198;1242;70241;-71
2023/02/07 05:12:49;;;;;;;55.20;33.20;;;;;;;-11.50;84.18;99094.80;110166;1244;69363;-72
2023/02/07 05:15:18;;;;;;;36.90;23.80;;;;;;;-11.47;83.87;99094.71;110241;1245;69364;-72
2023/02/07 05:17:47;;;;;;;51.10;28.50;;;;;;;-11.45;83.00;99094.80;110214;1244;58932;-71
2023/02/07 05:20:18;;;;;;;47.30;27.80;;;;;;;-11.44;85.49;99092.84;110205;1241;59005;-72
2023/02/07 05:22:48;;;;;;;44.30;25.40;;;;;;;-11.41;85.39;99094.49;110211;1244;70718;-72
2023/02/07 05:25:17;;;;;;;40.90;24.10;;;;;;;-11.37;86.36;99096.00;110150;1244;69209;-71
2023/02/07 05:27:46;;;;;;;42.10;23.80;;;;;;;-11.33;87.06;99096.67;110108;1243;68292;-72
2023/02/07 05:30:17;;;;;;;39.10;22.20;;;;;;;-11.28;86.26;99105.95;110148;1244;58941;-72
2023/02/07 05:35:44;;;;;;;27.00;17.70;;;;;;;-11.20;85.05;99109.13;110205;1241;70513;-72
2023/02/07 05:38:16;;;;;;;26.80;16.90;;;;;;;-11.16;85.15;99108.09;110234;1241;69288;-72
2023/02/07 05:40:47;;;;;;;26.40;16.90;;;;;;;-11.11;85.07;99113.38;110165;1245;69273;-72
2023/02/07 05:43:17;;;;;;;24.30;16.80;;;;;;;-11.06;84.28;99111.04;110108;1244;58896;-71
2023/02/07 05:45:46;;;;;;;36.30;21.30;;;;;;;-11.01;83.13;99114.58;110218;1244;59214;-71
2023/02/07 05:48:15;;;;;;;28.00;19.10;;;;;;;-10.97;83.10;99111.89;110173;1241;69841;-70
2023/02/07 05:50:44;;;;;;;37.00;22.10;;;;;;;-10.92;84.73;99112.74;110185;1244;68792;-71
2023/02/07 05:53:13;;;;;;;53.20;27.70;;;;;;;-10.89;84.51;99108.66;110152;1244;68618;-72
2023/02/07 05:55:43;;;;;;;33.20;19.80;;;;;;;-10.87;83.62;99111.75;110169;1244;58910;-70
2023/02/07 05:58:12;;;;;;;33.50;17.20;;;;;;;-10.85;84.14;99114.40;110141;1244;58879;-71
2023/02/07 06:00:41;;;;;;;38.20;22.40;;;;;;;-10.81;83.89;99110.98;110144;1241;70859;-72
2023/02/07 06:03:10;;;;;;;46.70;26.30;;;;;;;-10.81;83.38;99111.33;110180;1244;68853;-71
2023/02/07 06:05:39;;;;;;;44.90;26.30;;;;;;;-10.80;82.88;99105.98;110129;1243;69262;-71
2023/02/07 06:08:08;;;;;;;43.70;26.60;;;;;;;-10.78;82.58;99106.23;110125;1241;58892;-70
2023/02/07 06:10:38;;;;;;;37.20;25.50;;;;;;;-10.80;82.99;99101.61;110173;1242;58940;-72
2023/02/07 06:13:07;;;;;;;45.60;23.60;;;;;;;-10.78;83.55;99104.20;110152;1241;71092;-71
2023/02/07 06:15:36;;;;;;;38.90;23.00;;;;;;;-10.71;83.57;99108.18;110190;1244;69275;-71
2023/02/07 06:18:06;;;;;;;38.80;21.10;;;;;;;-10.63;83.77;99111.99;110167;1244;68321;-71
2023/02/07 06:20:35;;;;;;;36.90;20.90;;;;;;;-10.53;83.93;99109.87;110162;1241;58979;-71
2023/02/07 06:23:04;;;;;;;48.70;24.80;;;;;;;-10.41;83.83;99107.10;110162;1244;58879;-70
2023/02/07 06:25:33;;;;;;;35.00;21.40;;;;;;;-10.32;83.47;99107.60;110162;1244;70600;-71
2023/02/07 06:28:02;;;;;;;38.20;24.10;;;;;;;-10.25;83.13;99106.00;110190;1241;68567;-70
2023/02/07 06:30:31;;;;;;;47.10;28.10;;;;;;;-10.19;83.01;99099.13;110111;1244;69853;-71
2023/02/07 06:33:01;;;;;;;42.80;28.80;;;;;;;-10.12;82.85;99098.84;110154;1244;58964;-71
2023/02/07 06:35:30;;;;;;;36.60;23.70;;;;;;;-10.07;82.16;99100.91;110151;1242;58895;-71
2023/02/07 06:37:59;;;;;;;36.10;19.70;;;;;;;-9.96;81.48;99105.14;110091;1241;71140;-71
2023/02/07 06:40:29;;;;;;;32.50;20.00;;;;;;;-9.89;80.51;99104.56;110183;1241;69285;-70
2023/02/07 06:43:00;;;;;;;31.60;18.30;;;;;;;-9.79;79.72;99099.20;110157;1244;69916;-72
2023/02/07 06:45:29;;;;;;;26.30;16.80;;;;;;;-9.65;79.81;99098.95;110134;1245;58939;-72
2023/02/07 06:47:58;;;;;;;37.00;22.00;;;;;;;-9.54;79.43;99101.87;110134;1242;58825;-71
2023/02/07 06:50:27;;;;;;;52.10;29.00;;;;;;;-9.41;80.08;99105.18;110127;1244;71202;-74
2023/02/07 06:53:00;;;;;;;;;;;;;;;-9.32;80.79;99110.21;110185;1244;68518;-71
2023/02/07 06:55:31;;;;;;;35.50;22.90;;;;;;;-9.05;82.12;99105.84;110145;1244;69760;-71
2023/02/07 06:58:00;;;;;;;31.20;20.30;;;;;;;-8.68;81.36;99098.05;110171;1244;58930;-72
2023/02/07 07:00:29;;;;;;;34.10;18.30;;;;;;;-8.65;78.65;99093.58;110174;1244;58895;-71
2023/02/07 07:02:59;;;;;;;35.50;21.00;;;;;;;-8.72;76.65;99095.05;110193;1244;70542;-71
2023/02/07 07:05:29;;;;;;;37.80;23.10;;;;;;;-8.59;76.18;99097.29;110143;1244;69785;-71
2023/02/07 07:07:58;;;;;;;27.80;18.50;;;;;;;-8.57;73.55;99098.87;110205;1248;68560;-72
2023/02/07 07:10:27;;;;;;;23.10;16.40;;;;;;;-8.47;71.70;99102.90;110158;1245;58947;-72
2023/02/07 07:12:58;;;;;;;31.30;18.00;;;;;;;-8.32;72.40;99108.05;110184;1242;58887;-70
2023/02/07 07:15:28;;;;;;;24.90;16.00;;;;;;;-8.18;71.56;99111.98;110154;1241;70088;-71
2023/02/07 07:17:56;;;;;;;27.30;16.50;;;;;;;-8.04;71.43;99115.27;110116;1242;69820;-71
2023/02/07 07:20:27;;;;;;;25.10;15.90;;;;;;;-8.00;70.16;99114.37;110122;1241;69959;-71
2023/02/07 07:22:56;;;;;;;34.70;20.60;;;;;;;-7.94;69.36;99112.33;110158;1244;58925;-72
2023/02/07 07:25:25;;;;;;;37.70;22.00;;;;;;;-7.91;70.09;99110.88;110251;1244;58875;-73
2023/02/07 07:27:54;;;;;;;37.00;22.90;;;;;;;-7.90;70.32;99111.23;110162;1244;70584;-72
2023/02/07 07:30:23;;;;;;;35.90;22.40;;;;;;;-7.95;70.64;99104.33;110157;1244;69705;-74
2023/02/07 07:32:52;;;;;;;39.50;24.30;;;;;;;-8.20;71.40;99104.16;110165;1244;69882;-72
2023/02/07 07:35:21;;;;;;;44.20;25.80;;;;;;;-8.22;72.28;99108.31;110184;1245;59006;-72
2023/02/07 07:37:49;;;;;;;37.70;24.00;;;;;;;-8.23;72.62;99110.68;110183;1244;58847;-73
2023/02/07 07:40:19;;;;;;;37.00;25.40;;;;;;;-8.23;73.45;99115.59;110134;1241;70943;-73
2023/02/07 07:42:48;;;;;;;43.40;26.20;;;;;;;-8.05;73.77;99114.56;110169;1241;68525;-72
2023/02/07 07:45:24;;;;;;;39.50;25.00;;;;;;;-7.81;73.77;99114.02;110168;1244;69545;-72
2023/02/07 07:47:53;;;;;;;36.20;21.90;;;;;;;-7.72;72.38;99112.92;110157;1244;59317;-72
2023/02/07 07:50:23;;;;;;;39.50;27.10;;;;;;;-7.59;71.79;99110.73;110157;1245;58840;-71
2023/02/07 07:52:51;;;;;;;45.40;25.20;;;;;;;-7.39;71.78;99109.73;110130;1244;71247;-72
2023/02/07 07:55:20;;;;;;;37.40;24.90;;;;;;;-7.19;71.76;99107.85;110147;1243;69419;-72
2023/02/07 07:57:50;;;;;;;37.90;23.70;;;;;;;-6.91;71.77;99108.02;110148;1244;69329;-72
2023/02/07 08:00:19;;;;;;;36.50;22.90;;;;;;;-6.65;71.00;99108.10;110139;1241;58956;-73
2023/02/07 08:02:48;;;;;;;36.80;24.10;;;;;;;-6.47;69.31;99104.77;110198;1241;58954;-71
2023/02/07 08:05:17;;;;;;;41.40;25.60;;;;;;;-6.36;68.56;99100.77;110172;1244;71005;-73
2023/02/07 08:07:46;;;;;;;45.40;27.20;;;;;;;-6.37;68.11;99100.40;110162;1241;68430;-72
2023/02/07 08:10:14;;;;;;;40.00;24.00;;;;;;;-6.17;67.69;99101.15;110162;1241;69772;-72
2023/02/07 08:12:43;;;;;;;41.80;25.20;;;;;;;-5.87;67.44;99099.36;110243;1241;58989;-74
2023/02/07 08:15:12;;;;;;;40.40;24.90;;;;;;;-5.56;68.25;99101.46;110338;1242;58960;-73
2023/02/07 08:17:41;;;;;;;41.60;26.40;;;;;;;-5.39;67.80;99107.05;110217;1242;70642;-73
2023/02/07 08:20:11;;;;;;;43.80;28.90;;;;;;;-5.35;66.44;99105.40;110180;1244;69836;-73
2023/02/07 08:22:40;;;;;;;45.40;29.60;;;;;;;-5.25;66.45;99104.38;110162;1244;69309;-72
2023/02/07 08:25:09;;;;;;;41.80;28.50;;;;;;;-5.31;65.44;99096.12;110093;1244;58904;-71
2023/02/07 08:27:38;;;;;;;37.30;24.40;;;;;;;-5.35;64.78;99094.02;110109;1244;58897;-72
2023/02/07 08:30:10;;;;;;;43.00;27.30;;;;;;;-5.22;64.65;99096.11;109958;1244;69849;-72
2023/02/07 08:32:41;;;;;;;39.60;26.50;;;;;;;-4.87;63.50;99093.27;109817;1244;68411;-73
2023/02/07 08:35:09;;;;;;;;;;;;;;;-4.59;63.07;99100.33;109883;1245;69303;-73
2023/02/07 08:37:38;;;;;;;32.80;22.60;;;;;;;-4.49;62.91;99102.34;109854;1245;58915;-73
2023/02/07 08:40:08;;;;;;;37.20;24.20;;;;;;;-4.36;62.65;99101.34;109740;1244;58943;-73
2023/02/07 08:42:36;;;;;;;38.50;25.60;;;;;;;-4.14;64.08;99100.77;109861;1244;71192;-74
2023/02/07 08:45:06;;;;;;;40.90;27.00;;;;;;;-3.88;62.59;99103.47;109826;1244;68545;-71
2023/02/07 08:47:35;;;;;;;38.00;25.80;;;;;;;-3.81;62.02;99103.73;109773;1244;69404;-73
2023/02/07 08:50:05;;;;;;;39.10;27.00;;;;;;;-3.57;62.71;99106.88;109801;1244;58931;-72
2023/02/07 08:52:34;;;;;;;35.60;24.80;;;;;;;-3.46;62.03;99100.35;109829;1244;59374;-72
2023/02/07 08:55:03;;;;;;;35.30;24.20;;;;;;;-3.55;60.94;99094.80;109854;1244;69677;-72
2023/02/07 08:57:32;;;;;;;45.20;27.20;;;;;;;-3.80;60.47;99088.74;109916;1244;69243;-72
2023/02/07 09:00:01;;;;;;;38.60;26.40;;;;;;;-4.12;60.85;99083.60;109827;1244;69058;-72
2023/02/07 09:02:30;;;;;;;32.40;23.60;;;;;;;-4.03;61.04;99085.41;109857;1244;58905;-72
2023/02/07 09:04:59;;;;;;;34.50;21.50;;;;;;;-4.24;60.86;99084.48;109864;1244;58902;-73
2023/02/07 09:07:30;;;;;;;34.40;21.00;;;;;;;-4.49;61.46;99085.17;109882;1243;69640;-73
2023/02/07 09:09:59;;;;;;;34.90;22.70;;;;;;;-4.46;62.05;99088.42;109954;1243;69584;-73
2023/02/07 09:12:28;;;;;;;34.30;23.90;;;;;;;-4.44;62.47;99089.81;110009;1244;69217;-73
2023/02/07 09:14:59;;;;;;;35.30;23.50;;;;;;;-4.39;62.68;99089.89;109838;1243;58943;-72
2023/02/07 09:17:28;;;;;;;39.60;27.20;;;;;;;-4.13;63.05;99087.51;109790;1245;58947;-72
2023/02/07 09:19:57;;;;;;;41.00;26.50;;;;;;;-3.84;62.11;99086.31;109789;1244;71337;-73
2023/02/07 09:22:26;;;;;;;41.10;25.90;;;;;;;-3.84;62.32;99085.11;109800;1244;68189;-73
2023/02/07 09:24:56;;;;;;;40.60;28.00;;;;;;;-3.96;61.95;99079.89;109802;1244;69717;-73
2023/02/07 09:27:25;;;;;;;40.00;25.70;;;;;;;-3.81;61.70;99072.38;109785;1243;58934;-73
2023/02/07 09:29:54;;;;;;;34.80;21.30;;;;;;;-3.77;61.71;99065.43;109351;1244;614985;-73
2023/02/07 09:32:24;;;;;;;35.90;21.90;;;;;;;-3.86;61.22;99064.66;109809;1243;69622;-74
2023/02/07 09:34:53;;;;;;;40.10;23.80;;;;;;;-3.92;60.52;99063.91;109813;1244;69204;-72
2023/02/07 09:37:21;;;;;;;38.80;24.20;;;;;;;-3.89;60.40;99063.09;109749;1244;69691;-72
2023/02/07 09:39:50;;;;;;;40.80;27.30;;;;;;;-3.72;60.75;99058.66;109814;1243;58951;-73
2023/02/07 09:42:54;;;;;;;37.80;26.60;;;;;;;-3.50;60.12;99052.91;109814;1244;58867;-73
2023/02/07 09:45:28;;;;;;;34.30;22.70;;;;;;;-3.67;59.73;99047.13;109720;1244;69749;-74
2023/02/07 09:48:06;;;;;;;38.60;25.80;;;;;;;-3.23;59.13;99043.44;109920;1243;68615;-73
2023/02/07 09:50:46;;;;;;;35.00;25.50;;;;;;;-2.73;58.55;99045.17;109936;1244;68724;-73
2023/02/07 09:53:30;;;;;;;35.40;23.80;;;;;;;-3.08;59.18;99046.97;109951;1244;59376;-73
2023/02/07 09:56:01;;;;;;;38.00;23.30;;;;;;;-3.35;59.32;99049.64;109864;1244;58866;-74
2023/02/07 09:58:50;;;;;;;39.30;27.90;;;;;;;-3.45;59.64;99043.60;109997;1244;70544;-73
2023/02/07 10:01:26;;;;;;;38.10;26.20;;;;;;;-3.28;59.77;99040.17;109807;1244;69815;-73
2023/02/07 10:04:13;;;;;;;40.50;28.90;;;;;;;-3.31;59.67;99041.34;109828;1244;68528;-73
2023/02/07 10:06:45;;;;;;;41.70;27.90;;;;;;;-3.56;59.72;99040.41;109755;1246;58914;-73
2023/02/07 10:09:19;;;;;;;37.40;25.20;;;;;;;-3.55;59.68;99041.63;109874;1244;58866;-73
2023/02/07 10:12:10;;;;;;;43.40;27.70;;;;;;;-3.80;60.66;99046.66;109942;1244;71105;-73
2023/02/07 10:14:58;;;;;;;39.40;26.60;;;;;;;-3.54;60.04;99042.32;109920;1244;69720;-73
2023/02/07 10:17:42;;;;;;;38.00;25.50;;;;;;;-3.05;59.31;99038.81;109965;1248;69190;-73
2023/02/07 10:20:32;;;;;;;35.40;24.40;;;;;;;-2.73;58.23;99041.58;109827;1244;58874;-73
2023/02/07 10:23:38;;;;;;;35.10;25.30;;;;;;;-2.80;58.08;99045.13;110049;1244;58939;-73
2023/02/07 10:26:26;;;;;;;39.40;27.90;;;;;;;-2.59;57.65;99045.08;109801;1244;69921;-73
2023/02/07 10:28:54;;;;;;;33.60;22.10;;;;;;;-2.54;57.12;99046.48;109916;1244;68110;-73
2023/02/07 10:31:25;;;;;;;38.20;26.10;;;;;;;-2.49;56.64;99040.54;109808;1244;70270;-73
2023/02/07 10:34:00;;;;;;;40.60;28.80;;;;;;;-2.37;56.74;99042.99;109919;1245;58992;-74
2023/02/07 10:36:32;;;;;;;37.30;26.70;;;;;;;-2.86;57.89;99039.30;109846;1244;58881;-73
2023/02/07 10:39:26;;;;;;;44.60;28.90;;;;;;;-2.37;58.15;99040.41;109780;1244;70630;-73
2023/02/07 10:41:56;;;;;;;40.80;27.60;;;;;;;-1.76;57.51;99040.30;109932;1244;69797;-73
2023/02/07 10:44:27;;;;;;;37.40;27.30;;;;;;;-1.31;56.31;99036.95;109790;1245;69390;-73
2023/02/07 10:47:02;;;;;;;38.60;28.90;;;;;;;-0.99;55.29;99028.73;109803;1244;58909;-74
2023/02/07 10:49:35;;;;;;;34.20;22.70;;;;;;;-0.93;53.72;99020.17;109901;1244;59120;-74
2023/02/07 10:52:52;;;;;;;34.30;23.70;;;;;;;-0.65;52.79;99022.00;109826;1244;71033;-73
2023/02/07 10:55:42;;;;;;;25.70;19.00;;;;;;;-0.21;51.26;99018.78;109898;1245;68163;-73
2023/02/07 10:58:23;;;;;;;30.00;20.00;;;;;;;-0.33;50.38;99015.91;109995;1244;69898;-73
2023/02/07 11:00:54;;;;;;;27.70;21.60;;;;;;;0.18;50.07;99011.23;109963;1244;58900;-73
2023/02/07 11:03:23;;;;;;;;;;;;;;;0.60;50.23;99008.38;109825;1247;58878;-73
2023/02/07 11:06:03;;;;;;;23.50;18.00;;;;;;;0.50;47.31;99001.94;109969;1243;69416;-74
2023/02/07 11:08:33;;;;;;;25.80;17.90;;;;;;;0.84;46.81;99002.35;110053;1244;69073;-72
2023/02/07 11:11:37;;;;;;;30.30;20.70;;;;;;;1.01;46.69;99000.98;110245;1245;69859;-72
2023/02/07 11:14:14;;;;;;;28.30;20.90;;;;;;;0.63;46.56;98999.10;109678;1244;58875;-72
2023/02/07 11:16:44;;;;;;;27.40;19.90;;;;;;;0.55;46.75;98997.95;109850;1244;58887;-72
2023/02/07 11:19:23;;;;;;;28.70;22.40;;;;;;;0.90;47.30;98997.66;110052;1244;70198;-71
2023/02/07 11:22:04;;;;;;;27.70;20.60;;;;;;;0.99;46.94;98990.89;110048;1244;68489;-72
2023/02/07 11:24:35;;;;;;;25.30;19.00;;;;;;;0.96;47.85;98982.33;109849;1244;70190;-72
2023/02/07 11:27:13;;;;;;;27.20;19.00;;;;;;;1.09;47.68;98982.90;109807;1244;58948;-72
2023/02/07 11:29:49;;;;;;;30.70;23.50;;;;;;;1.23;47.51;98986.02;109964;1244;58838;-72
2023/02/07 11:32:20;;;;;;;30.40;22.50;;;;;;;1.17;46.84;98984.54;109997;1245;70585;-72
2023/02/07 11:34:57;;;;;;;30.10;21.90;;;;;;;1.38;46.52;98981.91;109801;1245;69903;-72
2023/02/07 11:37:37;;;;;;;26.90;19.90;;;;;;;1.59;45.53;98983.21;109751;1244;68538;-72
2023/02/07 11:40:23;;;;;;;29.40;23.30;;;;;;;2.09;45.64;98983.11;109945;1244;58885;-73